createdAt,value
2022-12-04T00:00:11.116Z,0.00
2022-12-04T00:01:11.086Z,0.00
2022-12-04T00:02:11.065Z,0.00
2022-12-04T00:03:11.065Z,0.00
2022-12-04T00:04:11.153Z,0.00
2022-12-04T00:05:11.034Z,0.00
2022-12-04T00:06:11.011Z,0.00
2022-12-04T00:07:11.000Z,0.00
2022-12-04T00:08:11.090Z,0.00
2022-12-04T00:09:10.971Z,0.00
2022-12-04T00:10:11.015Z,0.00
2022-12-04T00:11:10.951Z,0.00
2022-12-04T00:12:10.943Z,0.00
2022-12-04T00:13:10.947Z,0.00
2022-12-04T00:14:10.964Z,0.00
2022-12-04T00:15:27.002Z,0.00
2022-12-04T00:16:11.939Z,0.00
2022-12-04T00:17:10.897Z,0.00
2022-12-04T00:18:10.892Z,0.00
2022-12-04T00:19:10.871Z,0.00
2022-12-04T00:20:10.884Z,0.00
2022-12-04T00:21:10.835Z,0.00
2022-12-04T00:22:10.839Z,0.00
2022-12-04T00:23:10.846Z,0.00
2022-12-04T00:24:10.817Z,0.00
2022-12-04T00:25:10.796Z,0.00
2022-12-04T00:26:10.848Z,0.00
2022-12-04T00:27:10.777Z,0.00
2022-12-04T00:28:10.779Z,0.00
2022-12-04T00:29:10.818Z,0.00
2022-12-04T00:30:10.754Z,0.00
2022-12-04T00:31:10.756Z,0.00
2022-12-04T00:32:10.777Z,0.00
2022-12-04T00:33:10.710Z,0.00
2022-12-04T00:34:10.707Z,0.00
2022-12-04T00:35:10.716Z,0.00
2022-12-04T00:36:10.683Z,0.00
2022-12-04T00:37:10.667Z,0.00
2022-12-04T00:38:10.647Z,0.00
2022-12-04T00:39:10.660Z,0.00
2022-12-04T00:40:10.664Z,0.00
2022-12-04T00:41:10.624Z,0.00
2022-12-04T00:42:10.632Z,0.00
2022-12-04T00:43:10.601Z,0.00
2022-12-04T00:44:10.621Z,0.00
2022-12-04T00:45:10.560Z,0.00
2022-12-04T00:46:10.732Z,0.00
2022-12-04T00:47:10.538Z,0.00
2022-12-04T00:48:10.527Z,0.00
2022-12-04T00:49:10.561Z,0.00
2022-12-04T00:50:10.510Z,0.00
2022-12-04T00:51:10.518Z,0.00
2022-12-04T00:52:10.541Z,0.00
2022-12-04T00:53:10.488Z,0.00
2022-12-04T00:54:10.482Z,0.00
2022-12-04T00:55:10.456Z,0.00
2022-12-04T00:56:10.471Z,0.00
2022-12-04T00:57:10.468Z,0.00
2022-12-04T00:58:10.432Z,0.00
2022-12-04T00:59:10.399Z,0.00
2022-12-04T01:00:10.409Z,0.00
2022-12-04T01:01:10.540Z,0.00
2022-12-04T01:02:10.370Z,0.00
2022-12-04T01:03:10.480Z,0.00
2022-12-04T01:04:10.341Z,0.00
2022-12-04T01:05:10.353Z,0.00
2022-12-04T01:06:10.343Z,0.00
2022-12-04T01:07:10.346Z,0.00
2022-12-04T01:08:10.367Z,0.00
2022-12-04T01:09:10.321Z,0.00
2022-12-04T01:10:10.285Z,0.00
2022-12-04T01:11:10.272Z,0.00
2022-12-04T01:12:10.273Z,0.00
2022-12-04T01:13:10.254Z,0.00
2022-12-04T01:14:10.397Z,0.00
2022-12-04T01:15:10.237Z,0.00
2022-12-04T01:16:10.360Z,0.00
2022-12-04T01:17:10.212Z,0.00
2022-12-04T01:18:10.266Z,0.00
2022-12-04T01:19:10.188Z,0.00
2022-12-04T01:20:10.153Z,0.00
2022-12-04T01:21:10.154Z,0.00
2022-12-04T01:22:10.163Z,0.00
2022-12-04T01:23:10.147Z,0.00
2022-12-04T01:24:10.163Z,0.00
2022-12-04T01:25:10.113Z,0.00
2022-12-04T01:26:10.083Z,0.00
2022-12-04T01:27:10.108Z,0.00
2022-12-04T01:28:10.064Z,0.00
2022-12-04T01:29:10.087Z,0.00
2022-12-04T01:30:10.075Z,0.00
2022-12-04T01:31:10.109Z,0.00
2022-12-04T01:32:10.088Z,0.00
2022-12-04T01:33:10.005Z,0.00
2022-12-04T01:34:10.018Z,0.00
2022-12-04T01:35:10.028Z,0.00
2022-12-04T01:36:10.014Z,0.00
2022-12-04T01:37:09.966Z,0.00
2022-12-04T01:38:09.969Z,0.00
2022-12-04T01:39:09.956Z,0.00
2022-12-04T01:40:09.934Z,0.00
2022-12-04T01:41:09.969Z,0.00
2022-12-04T01:42:09.920Z,0.00
2022-12-04T01:43:09.917Z,0.00
2022-12-04T01:44:09.904Z,0.00
2022-12-04T01:45:09.913Z,0.00
2022-12-04T01:46:10.000Z,0.00
2022-12-04T01:47:09.878Z,0.00
2022-12-04T01:48:09.837Z,0.00
2022-12-04T01:49:09.867Z,0.00
2022-12-04T01:50:09.827Z,0.00
2022-12-04T01:51:09.828Z,0.00
2022-12-04T01:52:09.857Z,0.00
2022-12-04T01:53:09.786Z,0.00
2022-12-04T01:54:09.789Z,0.00
2022-12-04T01:55:09.769Z,0.00
2022-12-04T01:56:09.765Z,0.00
2022-12-04T01:57:09.738Z,0.00
2022-12-04T01:58:09.751Z,0.00
2022-12-04T01:59:09.752Z,0.00
2022-12-04T02:00:09.731Z,0.00
2022-12-04T02:01:09.854Z,0.00
2022-12-04T02:02:09.811Z,0.00
2022-12-04T02:03:09.726Z,0.00
2022-12-04T02:04:09.693Z,0.00
2022-12-04T02:05:09.641Z,0.00
2022-12-04T02:06:09.639Z,0.00
2022-12-04T02:07:09.651Z,0.00
2022-12-04T02:08:09.691Z,0.00
2022-12-04T02:09:09.622Z,0.00
2022-12-04T02:10:09.604Z,0.00
2022-12-04T02:11:09.581Z,0.00
2022-12-04T02:12:09.600Z,0.00
2022-12-04T02:13:09.551Z,0.00
2022-12-04T02:14:09.580Z,0.00
2022-12-04T02:15:09.562Z,0.00
2022-12-04T02:16:09.549Z,0.00
2022-12-04T02:17:09.525Z,0.00
2022-12-04T02:18:09.565Z,0.00
2022-12-04T02:19:09.525Z,0.00
2022-12-04T02:20:09.485Z,0.00
2022-12-04T02:21:09.462Z,0.00
2022-12-04T02:22:09.484Z,0.00
2022-12-04T02:23:09.494Z,0.00
2022-12-04T02:24:09.432Z,0.00
2022-12-04T02:25:09.453Z,0.00
2022-12-04T02:26:09.419Z,0.00
2022-12-04T02:27:09.416Z,0.00
2022-12-04T02:28:09.399Z,0.00
2022-12-04T02:29:09.393Z,0.00
2022-12-04T02:30:09.418Z,0.00
2022-12-04T02:31:09.399Z,0.00
2022-12-04T02:32:09.365Z,0.00
2022-12-04T02:33:09.324Z,0.00
2022-12-04T02:34:09.325Z,0.00
2022-12-04T02:35:09.318Z,0.00
2022-12-04T02:36:09.315Z,0.00
2022-12-04T02:37:09.288Z,0.00
2022-12-04T02:38:09.285Z,0.00
2022-12-04T02:39:09.279Z,0.00
2022-12-04T02:40:09.253Z,0.00
2022-12-04T02:41:09.268Z,0.00
2022-12-04T02:42:09.229Z,0.00
2022-12-04T02:43:09.340Z,0.00
2022-12-04T02:44:09.227Z,0.00
2022-12-04T02:45:09.186Z,0.00
2022-12-04T02:46:09.222Z,0.00
2022-12-04T02:47:09.199Z,0.00
2022-12-04T02:48:09.170Z,0.00
2022-12-04T02:49:09.191Z,0.00
2022-12-04T02:50:09.128Z,0.00
2022-12-04T02:51:09.137Z,0.00
2022-12-04T02:52:09.121Z,0.00
2022-12-04T02:53:09.110Z,0.00
2022-12-04T02:54:09.109Z,0.00
2022-12-04T02:55:09.117Z,0.00
2022-12-04T02:56:09.081Z,0.00
2022-12-04T02:57:09.072Z,0.00
2022-12-04T02:58:09.038Z,0.00
2022-12-04T02:59:09.048Z,0.00
2022-12-04T03:00:09.041Z,0.00
2022-12-04T03:01:09.109Z,0.00
2022-12-04T03:02:09.074Z,0.00
2022-12-04T03:03:09.003Z,0.00
2022-12-04T03:04:08.982Z,0.00
2022-12-04T03:05:09.023Z,0.00
2022-12-04T03:06:08.962Z,0.00
2022-12-04T03:07:09.003Z,0.00
2022-12-04T03:08:08.979Z,0.00
2022-12-04T03:09:08.933Z,0.00
2022-12-04T03:10:08.913Z,0.00
2022-12-04T03:11:08.923Z,0.00
2022-12-04T03:12:08.900Z,0.00
2022-12-04T03:13:08.879Z,0.00
2022-12-04T03:14:08.927Z,0.00
2022-12-04T03:15:08.864Z,0.00
2022-12-04T03:16:08.862Z,0.00
2022-12-04T03:17:08.874Z,0.00
2022-12-04T03:18:08.825Z,0.00
2022-12-04T03:19:08.830Z,0.00
2022-12-04T03:20:08.811Z,0.00
2022-12-04T03:21:08.792Z,0.00
2022-12-04T03:22:08.771Z,0.00
2022-12-04T03:23:08.765Z,0.00
2022-12-04T03:24:08.808Z,0.00
2022-12-04T03:25:08.736Z,0.00
2022-12-04T03:26:08.774Z,0.00
2022-12-04T03:27:08.703Z,0.00
2022-12-04T03:28:08.683Z,0.00
2022-12-04T03:29:08.716Z,0.00
2022-12-04T03:30:08.707Z,0.00
2022-12-04T03:31:08.776Z,0.00
2022-12-04T03:32:08.664Z,0.00
2022-12-04T03:33:08.642Z,0.00
2022-12-04T03:34:08.637Z,0.00
2022-12-04T03:35:08.616Z,0.00
2022-12-04T03:36:08.604Z,0.00
2022-12-04T03:37:08.658Z,0.00
2022-12-04T03:38:08.592Z,0.00
2022-12-04T03:39:08.574Z,0.00
2022-12-04T03:40:08.596Z,0.00
2022-12-04T03:41:08.570Z,0.00
2022-12-04T03:42:08.598Z,0.00
2022-12-04T03:43:08.548Z,0.00
2022-12-04T03:44:08.515Z,0.00
2022-12-04T03:45:08.504Z,0.00
2022-12-04T03:46:08.609Z,0.00
2022-12-04T03:47:08.489Z,0.00
2022-12-04T03:48:08.550Z,0.00
2022-12-04T03:49:08.470Z,0.00
2022-12-04T03:50:08.442Z,0.00
2022-12-04T03:51:08.428Z,0.00
2022-12-04T03:52:08.458Z,0.00
2022-12-04T03:53:08.450Z,0.00
2022-12-04T03:54:08.450Z,0.00
2022-12-04T03:55:08.402Z,0.00
2022-12-04T03:56:08.389Z,0.00
2022-12-04T03:57:08.383Z,0.00
2022-12-04T03:58:08.378Z,0.00
2022-12-04T03:59:08.358Z,0.00
2022-12-04T04:00:08.351Z,0.00
2022-12-04T04:01:08.383Z,0.00
2022-12-04T04:02:08.483Z,0.00
2022-12-04T04:03:08.322Z,0.00
2022-12-04T04:04:08.299Z,0.00
2022-12-04T04:05:08.302Z,0.00
2022-12-04T04:06:08.271Z,0.00
2022-12-04T04:07:08.240Z,0.00
2022-12-04T04:08:08.328Z,0.00
2022-12-04T04:09:08.247Z,0.00
2022-12-04T04:10:08.253Z,0.00
2022-12-04T04:11:08.243Z,0.00
2022-12-04T04:12:08.212Z,0.00
2022-12-04T04:13:08.187Z,0.00
2022-12-04T04:14:08.179Z,0.00
2022-12-04T04:15:08.168Z,0.00
2022-12-04T04:16:08.254Z,0.00
2022-12-04T04:17:08.131Z,0.00
2022-12-04T04:18:08.115Z,0.00
2022-12-04T04:19:08.150Z,0.00
2022-12-04T04:20:08.104Z,0.00
2022-12-04T04:21:08.115Z,0.00
2022-12-04T04:22:08.071Z,0.00
2022-12-04T04:23:08.096Z,0.00
2022-12-04T04:24:08.065Z,0.00
2022-12-04T04:25:08.072Z,0.00
2022-12-04T04:26:08.056Z,0.00
2022-12-04T04:27:08.054Z,0.00
2022-12-04T04:28:08.035Z,0.00
2022-12-04T04:29:08.006Z,0.00
2022-12-04T04:30:07.997Z,0.00
2022-12-04T04:31:08.009Z,0.00
2022-12-04T04:32:07.956Z,0.00
2022-12-04T04:33:07.998Z,0.00
2022-12-04T04:34:07.934Z,0.00
2022-12-04T04:35:07.927Z,0.00
2022-12-04T04:36:07.958Z,0.00
2022-12-04T04:37:07.894Z,0.00
2022-12-04T04:38:07.893Z,0.00
2022-12-04T04:39:07.893Z,0.00
2022-12-04T04:40:07.864Z,0.00
2022-12-04T04:41:07.917Z,0.00
2022-12-04T04:42:07.844Z,0.00
2022-12-04T04:43:07.831Z,0.00
2022-12-04T04:44:07.845Z,0.00
2022-12-04T04:45:07.819Z,0.00
2022-12-04T04:46:07.858Z,0.00
2022-12-04T04:47:07.829Z,0.00
2022-12-04T04:48:07.776Z,0.00
2022-12-04T04:49:07.785Z,0.00
2022-12-04T04:50:07.778Z,0.00
2022-12-04T04:51:07.751Z,0.00
2022-12-04T04:52:07.755Z,0.00
2022-12-04T04:53:07.749Z,0.00
2022-12-04T04:54:07.699Z,0.00
2022-12-04T04:55:07.700Z,0.00
2022-12-04T04:56:07.724Z,0.00
2022-12-04T04:57:07.687Z,0.00
2022-12-04T04:58:07.696Z,0.00
2022-12-04T04:59:07.644Z,0.00
2022-12-04T05:00:07.672Z,0.00
2022-12-04T05:01:07.623Z,0.00
2022-12-04T05:02:07.680Z,0.00
2022-12-04T05:03:07.641Z,0.00
2022-12-04T05:04:07.630Z,0.00
2022-12-04T05:05:07.588Z,0.00
2022-12-04T05:06:07.590Z,0.00
2022-12-04T05:07:07.562Z,0.00
2022-12-04T05:08:07.653Z,0.00
2022-12-04T05:09:07.531Z,0.00
2022-12-04T05:10:07.558Z,0.00
2022-12-04T05:11:07.520Z,0.00
2022-12-04T05:12:07.505Z,0.00
2022-12-04T05:13:07.493Z,0.00
2022-12-04T05:14:07.483Z,0.00
2022-12-04T05:15:07.482Z,0.00
2022-12-04T05:16:07.502Z,0.00
2022-12-04T05:17:12.289Z,0.00
2022-12-04T05:18:08.446Z,0.00
2022-12-04T05:19:07.421Z,0.00
2022-12-04T05:20:07.402Z,0.00
2022-12-04T05:21:07.440Z,0.00
2022-12-04T05:22:07.394Z,0.00
2022-12-04T05:23:07.383Z,0.00
2022-12-04T05:24:07.364Z,0.00
2022-12-04T05:25:07.350Z,0.00
2022-12-04T05:26:07.371Z,0.00
2022-12-04T05:27:07.355Z,0.00
2022-12-04T05:28:07.361Z,0.00
2022-12-04T05:29:07.308Z,0.00
2022-12-04T05:30:07.296Z,0.00
2022-12-04T05:31:07.394Z,0.00
2022-12-04T05:32:07.283Z,0.00
2022-12-04T05:33:07.281Z,0.00
2022-12-04T05:34:07.257Z,0.00
2022-12-04T05:35:11.016Z,0.00
2022-12-04T05:36:07.243Z,0.00
2022-12-04T05:37:07.217Z,0.00
2022-12-04T05:38:07.228Z,0.00
2022-12-04T05:39:07.203Z,0.00
2022-12-04T05:40:07.187Z,0.00
2022-12-04T05:41:07.170Z,0.00
2022-12-04T05:42:07.168Z,0.00
2022-12-04T05:43:07.155Z,0.00
2022-12-04T05:44:07.179Z,0.00
2022-12-04T05:45:07.126Z,0.00
2022-12-04T05:46:07.114Z,0.00
2022-12-04T05:47:07.218Z,0.00
2022-12-04T05:48:07.119Z,0.00
2022-12-04T05:49:07.068Z,0.00
2022-12-04T05:50:07.075Z,0.00
2022-12-04T05:51:07.068Z,0.00
2022-12-04T05:52:07.041Z,0.00
2022-12-04T05:53:07.024Z,0.00
2022-12-04T05:54:07.010Z,0.00
2022-12-04T05:55:07.029Z,0.00
2022-12-04T05:56:07.017Z,0.00
2022-12-04T05:57:06.990Z,0.00
2022-12-04T05:58:06.968Z,0.00
2022-12-04T05:59:06.957Z,0.00
2022-12-04T06:00:06.980Z,0.00
2022-12-04T06:01:06.979Z,0.00
2022-12-04T06:02:06.998Z,0.00
2022-12-04T06:03:06.976Z,0.00
2022-12-04T06:04:06.889Z,0.00
2022-12-04T06:05:06.933Z,0.00
2022-12-04T06:06:06.913Z,0.00
2022-12-04T06:07:06.950Z,0.00
2022-12-04T06:08:06.947Z,0.00
2022-12-04T06:09:06.881Z,0.00
2022-12-04T06:10:06.856Z,0.00
2022-12-04T06:11:06.865Z,0.00
2022-12-04T06:12:06.832Z,0.00
2022-12-04T06:13:06.835Z,0.00
2022-12-04T06:14:06.803Z,0.00
2022-12-04T06:15:06.802Z,0.00
2022-12-04T06:16:06.811Z,0.00
2022-12-04T06:17:06.763Z,0.00
2022-12-04T06:18:06.790Z,0.00
2022-12-04T06:19:06.760Z,0.00
2022-12-04T06:20:11.432Z,0.00
2022-12-04T06:21:07.722Z,0.00
2022-12-04T06:22:06.701Z,0.00
2022-12-04T06:23:06.755Z,0.00
2022-12-04T06:24:06.679Z,0.00
2022-12-04T06:25:06.670Z,0.00
2022-12-04T06:26:07.346Z,0.00
2022-12-04T06:28:07.735Z,0.00
2022-12-04T06:29:06.632Z,0.00
2022-12-04T06:30:06.645Z,0.00
2022-12-04T06:31:06.627Z,0.00
2022-12-04T06:32:06.677Z,4.00
2022-12-04T06:33:06.605Z,4.00
2022-12-04T06:34:06.601Z,4.00
2022-12-04T06:35:06.542Z,0.00
2022-12-04T06:36:06.550Z,4.00
2022-12-04T06:37:06.546Z,4.00
2022-12-04T06:38:06.548Z,4.00
2022-12-04T06:39:06.508Z,4.00
2022-12-04T06:40:06.529Z,4.00
2022-12-04T06:41:06.519Z,4.00
2022-12-04T06:42:06.476Z,8.00
2022-12-04T06:43:06.473Z,8.00
2022-12-04T06:44:06.454Z,8.00
2022-12-04T06:45:06.556Z,12.00
2022-12-04T06:46:06.537Z,12.00
2022-12-04T06:47:06.418Z,12.00
2022-12-04T06:48:06.438Z,12.00
2022-12-04T06:49:06.445Z,16.00
2022-12-04T06:50:06.411Z,20.00
2022-12-04T06:51:06.433Z,16.00
2022-12-04T06:52:06.427Z,20.00
2022-12-04T06:53:08.446Z,24.00
2022-12-04T06:54:06.325Z,24.00
2022-12-04T06:55:06.336Z,28.00
2022-12-04T06:56:06.345Z,28.00
2022-12-04T06:57:06.330Z,28.00
2022-12-04T06:58:06.318Z,32.00
2022-12-04T06:59:06.268Z,36.00
2022-12-04T07:00:06.265Z,40.00
2022-12-04T07:01:06.306Z,44.00
2022-12-04T07:02:06.315Z,48.00
2022-12-04T07:03:06.293Z,52.00
2022-12-04T07:04:06.231Z,52.00
2022-12-04T07:05:06.211Z,60.00
2022-12-04T07:06:06.241Z,64.00
2022-12-04T07:07:06.212Z,68.00
2022-12-04T07:08:06.228Z,76.00
2022-12-04T07:09:06.195Z,76.00
2022-12-04T07:10:06.172Z,80.00
2022-12-04T07:11:06.144Z,88.00
2022-12-04T07:12:06.129Z,96.00
2022-12-04T07:13:06.120Z,104.00
2022-12-04T07:14:06.158Z,104.00
2022-12-04T07:15:06.090Z,104.00
2022-12-04T07:16:06.164Z,104.00
2022-12-04T07:17:06.193Z,112.00
2022-12-04T07:18:06.065Z,124.00
2022-12-04T07:19:06.038Z,140.00
2022-12-04T07:20:06.092Z,152.00
2022-12-04T07:21:06.029Z,164.00
2022-12-04T07:22:06.028Z,168.00
2022-12-04T07:23:07.471Z,176.00
2022-12-04T07:24:06.043Z,172.00
2022-12-04T07:25:05.974Z,188.00
2022-12-04T07:26:05.982Z,204.00
2022-12-04T07:27:05.965Z,200.00
2022-12-04T07:28:05.974Z,204.00
2022-12-04T07:29:05.931Z,212.00
2022-12-04T07:30:07.856Z,228.00
2022-12-04T07:31:06.957Z,264.00
2022-12-04T07:32:06.015Z,292.00
2022-12-04T07:33:05.909Z,292.00
2022-12-04T07:34:05.904Z,296.00
2022-12-04T07:35:05.863Z,308.00
2022-12-04T07:36:05.866Z,324.00
2022-12-04T07:37:05.874Z,332.00
2022-12-04T07:38:05.834Z,332.00
2022-12-04T07:39:05.833Z,324.00
2022-12-04T07:40:05.801Z,324.00
2022-12-04T07:41:05.824Z,352.00
2022-12-04T07:42:05.786Z,392.00
2022-12-04T07:43:05.799Z,412.00
2022-12-04T07:44:05.788Z,420.00
2022-12-04T07:45:05.734Z,432.00
2022-12-04T07:46:05.774Z,432.00
2022-12-04T07:47:05.757Z,424.00
2022-12-04T07:48:05.721Z,424.00
2022-12-04T07:49:05.714Z,424.00
2022-12-04T07:50:05.698Z,440.00
2022-12-04T07:51:05.705Z,456.00
2022-12-04T07:52:05.699Z,476.00
2022-12-04T07:53:05.685Z,512.00
2022-12-04T07:54:05.646Z,544.00
2022-12-04T07:55:05.659Z,572.00
2022-12-04T07:56:05.648Z,604.00
2022-12-04T07:57:05.618Z,612.00
2022-12-04T07:58:05.606Z,620.00
2022-12-04T07:59:05.620Z,636.00
2022-12-04T08:00:05.582Z,648.00
2022-12-04T08:01:05.681Z,628.00
2022-12-04T08:02:05.581Z,632.00
2022-12-04T08:03:05.561Z,652.00
2022-12-04T08:04:05.575Z,648.00
2022-12-04T08:05:05.519Z,668.00
2022-12-04T08:06:05.521Z,744.00
2022-12-04T08:07:05.538Z,776.00
2022-12-04T08:08:05.607Z,784.00
2022-12-04T08:09:09.856Z,832.00
2022-12-04T08:10:05.471Z,824.00
2022-12-04T08:11:05.582Z,820.00
2022-12-04T08:12:05.472Z,796.00
2022-12-04T08:13:05.478Z,760.00
2022-12-04T08:14:05.408Z,808.00
2022-12-04T08:15:05.402Z,800.00
2022-12-04T08:16:05.404Z,784.00
2022-12-04T08:17:05.474Z,792.00
2022-12-04T08:18:05.368Z,820.00
2022-12-04T08:19:05.344Z,856.00
2022-12-04T08:20:05.418Z,880.00
2022-12-04T08:21:05.330Z,932.00
2022-12-04T08:22:05.370Z,976.00
2022-12-04T08:23:05.330Z,952.00
2022-12-04T08:24:05.323Z,936.00
2022-12-04T08:25:05.303Z,976.00
2022-12-04T08:26:05.272Z,1008.00
2022-12-04T08:27:05.260Z,1036.00
2022-12-04T08:28:05.298Z,1080.00
2022-12-04T08:29:05.236Z,1068.00
2022-12-04T08:30:05.245Z,1108.00
2022-12-04T08:31:05.335Z,1120.00
2022-12-04T08:32:05.212Z,1116.00
2022-12-04T08:33:05.226Z,1044.00
2022-12-04T08:34:05.203Z,1060.00
2022-12-04T08:35:05.186Z,1216.00
2022-12-04T08:36:05.177Z,1260.00
2022-12-04T08:37:05.201Z,1276.00
2022-12-04T08:38:05.145Z,1252.00
2022-12-04T08:39:05.140Z,1200.00
2022-12-04T08:40:05.171Z,1228.00
2022-12-04T08:41:05.106Z,1308.00
2022-12-04T08:42:05.118Z,1324.00
2022-12-04T08:43:05.104Z,1264.00
2022-12-04T08:44:05.114Z,1284.00
2022-12-04T08:45:05.068Z,1244.00
2022-12-04T08:46:05.104Z,1276.00
2022-12-04T08:47:05.069Z,1388.00
2022-12-04T08:48:05.038Z,1304.00
2022-12-04T08:49:05.043Z,1216.00
2022-12-04T08:50:04.994Z,1156.00
2022-12-04T08:51:05.017Z,1168.00
2022-12-04T08:52:04.974Z,1140.00
2022-12-04T08:53:04.969Z,1172.00
2022-12-04T08:54:04.958Z,1200.00
2022-12-04T08:55:04.978Z,1240.00
2022-12-04T08:56:04.946Z,1208.00
2022-12-04T08:57:04.912Z,1160.00
2022-12-04T08:58:04.917Z,1188.00
2022-12-04T08:59:04.913Z,1192.00
2022-12-04T09:00:04.926Z,1196.00
2022-12-04T09:01:04.962Z,1164.00
2022-12-04T09:02:04.984Z,1112.00
2022-12-04T09:03:04.874Z,1112.00
2022-12-04T09:04:04.923Z,1084.00
2022-12-04T09:05:04.828Z,1124.00
2022-12-04T09:06:04.842Z,1140.00
2022-12-04T09:07:04.841Z,1128.00
2022-12-04T09:08:04.849Z,988.00
2022-12-04T09:09:04.810Z,988.00
2022-12-04T09:10:04.789Z,944.00
2022-12-04T09:11:04.793Z,976.00
2022-12-04T09:12:04.739Z,892.00
2022-12-04T09:13:04.741Z,972.00
2022-12-04T09:14:04.719Z,1088.00
2022-12-04T09:15:04.759Z,1196.00
2022-12-04T09:16:04.777Z,1032.00
2022-12-04T09:17:04.693Z,988.00
2022-12-04T09:18:04.678Z,936.00
2022-12-04T09:19:04.676Z,952.00
2022-12-04T09:20:05.089Z,900.00
2022-12-04T09:21:04.674Z,880.00
2022-12-04T09:22:04.644Z,920.00
2022-12-04T09:23:05.461Z,956.00
2022-12-04T09:24:04.604Z,876.00
2022-12-04T09:25:04.620Z,872.00
2022-12-04T09:26:04.594Z,856.00
2022-12-04T09:27:05.917Z,844.00
2022-12-04T09:28:04.581Z,816.00
2022-12-04T09:29:04.593Z,776.00
2022-12-04T09:30:04.556Z,760.00
2022-12-04T09:31:04.610Z,764.00
2022-12-04T09:32:04.531Z,760.00
2022-12-04T09:33:04.535Z,768.00
2022-12-04T09:34:04.492Z,796.00
2022-12-04T09:35:04.515Z,844.00
2022-12-04T09:36:04.506Z,844.00
2022-12-04T09:37:04.463Z,852.00
2022-12-04T09:38:04.464Z,840.00
2022-12-04T09:39:04.446Z,844.00
2022-12-04T09:40:04.435Z,840.00
2022-12-04T09:41:04.447Z,852.00
2022-12-04T09:42:04.423Z,880.00
2022-12-04T09:43:04.384Z,888.00
2022-12-04T09:44:04.377Z,892.00
2022-12-04T09:45:04.377Z,916.00
2022-12-04T09:46:04.502Z,944.00
2022-12-04T09:47:04.539Z,1000.00
2022-12-04T09:48:04.347Z,1076.00
2022-12-04T09:49:04.333Z,1124.00
2022-12-04T09:50:04.316Z,1204.00
2022-12-04T09:51:04.312Z,1336.00
2022-12-04T09:52:04.335Z,1504.00
2022-12-04T09:53:04.288Z,1684.00
2022-12-04T09:54:04.267Z,1892.00
2022-12-04T09:55:04.254Z,2004.00
2022-12-04T09:56:04.280Z,2088.00
2022-12-04T09:57:04.245Z,2248.00
2022-12-04T09:58:04.235Z,2340.00
2022-12-04T09:59:04.227Z,2340.00
2022-12-04T10:00:04.209Z,2440.00
2022-12-04T10:01:04.199Z,2460.00
2022-12-04T10:02:04.224Z,2532.00
2022-12-04T10:03:04.294Z,2664.00
2022-12-04T10:04:06.281Z,2688.00
2022-12-04T10:05:04.127Z,2652.00
2022-12-04T10:06:04.132Z,2800.00
2022-12-04T10:07:04.127Z,2816.00
2022-12-04T10:08:04.156Z,2832.00
2022-12-04T10:09:04.081Z,3028.00
2022-12-04T10:10:04.098Z,3104.00
2022-12-04T10:11:04.057Z,2868.00
2022-12-04T10:12:04.091Z,2736.00
2022-12-04T10:13:04.079Z,2640.00
2022-12-04T10:14:04.025Z,2672.00
2022-12-04T10:15:04.052Z,2652.00
2022-12-04T10:16:04.102Z,2516.00
2022-12-04T10:17:04.002Z,2368.00
2022-12-04T10:18:03.978Z,2344.00
2022-12-04T10:19:03.971Z,2304.00
2022-12-04T10:20:04.018Z,2128.00
2022-12-04T10:21:03.970Z,2048.00
2022-12-04T10:22:03.943Z,2208.00
2022-12-04T10:23:03.951Z,2448.00
2022-12-04T10:24:03.927Z,2540.00
2022-12-04T10:25:03.913Z,2516.00
2022-12-04T10:26:03.925Z,2600.00
2022-12-04T10:27:03.891Z,2456.00
2022-12-04T10:28:03.955Z,2576.00
2022-12-04T10:29:03.878Z,2872.00
2022-12-04T10:30:03.854Z,3156.00
2022-12-04T10:31:03.921Z,3212.00
2022-12-04T10:32:03.812Z,3256.00
2022-12-04T10:33:04.716Z,3420.00
2022-12-04T10:34:03.816Z,3548.00
2022-12-04T10:35:03.782Z,3204.00
2022-12-04T10:36:03.786Z,3176.00
2022-12-04T10:37:03.791Z,3000.00
2022-12-04T10:38:03.806Z,2892.00
2022-12-04T10:39:03.756Z,2936.00
2022-12-04T10:40:03.736Z,2868.00
2022-12-04T10:41:03.727Z,2784.00
2022-12-04T10:42:03.726Z,2736.00
2022-12-04T10:43:03.714Z,2648.00
2022-12-04T10:44:03.738Z,2576.00
2022-12-04T10:45:03.707Z,2412.00
2022-12-04T10:46:03.706Z,2200.00
2022-12-04T10:47:03.700Z,2104.00
2022-12-04T10:48:03.667Z,2096.00
2022-12-04T10:49:03.644Z,2000.00
2022-12-04T10:50:03.645Z,1948.00
2022-12-04T10:51:03.620Z,2008.00
2022-12-04T10:52:03.596Z,2084.00
2022-12-04T10:53:03.728Z,2200.00
2022-12-04T10:54:03.558Z,2124.00
2022-12-04T10:55:03.556Z,2200.00
2022-12-04T10:56:03.575Z,2396.00
2022-12-04T10:57:03.538Z,2480.00
2022-12-04T10:58:03.543Z,2324.00
2022-12-04T10:59:03.532Z,2172.00
2022-12-04T11:00:03.511Z,2160.00
2022-12-04T11:01:03.515Z,2428.00
2022-12-04T11:02:06.888Z,2248.00
2022-12-04T11:03:03.547Z,2144.00
2022-12-04T11:04:03.483Z,1932.00
2022-12-04T11:05:03.466Z,1828.00
2022-12-04T11:06:03.458Z,1884.00
2022-12-04T11:07:03.513Z,2040.00
2022-12-04T11:08:03.535Z,2076.00
2022-12-04T11:09:03.403Z,2328.00
2022-12-04T11:10:03.401Z,2272.00
2022-12-04T11:11:03.387Z,2408.00
2022-12-04T11:12:03.371Z,2452.00
2022-12-04T11:13:03.341Z,2360.00
2022-12-04T11:14:03.400Z,2236.00
2022-12-04T11:15:03.331Z,2128.00
2022-12-04T11:16:03.406Z,2288.00
2022-12-04T11:17:03.300Z,2520.00
2022-12-04T11:18:03.296Z,2488.00
2022-12-04T11:19:03.291Z,2504.00
2022-12-04T11:20:03.289Z,2380.00
2022-12-04T11:21:03.291Z,2312.00
2022-12-04T11:22:03.242Z,2188.00
2022-12-04T11:23:03.245Z,2168.00
2022-12-04T11:24:03.241Z,2272.00
2022-12-04T11:25:03.241Z,2188.00
2022-12-04T11:26:06.116Z,2172.00
2022-12-04T11:27:03.224Z,2128.00
2022-12-04T11:28:03.180Z,2084.00
2022-12-04T11:29:03.160Z,2204.00
2022-12-04T11:30:03.164Z,2028.00
2022-12-04T11:31:03.210Z,1812.00
2022-12-04T11:32:07.459Z,1816.00
2022-12-04T11:33:03.136Z,1800.00
2022-12-04T11:34:03.121Z,1708.00
2022-12-04T11:35:03.154Z,1692.00
2022-12-04T11:36:03.097Z,1632.00
2022-12-04T11:37:03.072Z,1616.00
2022-12-04T11:38:03.076Z,1672.00
2022-12-04T11:39:03.091Z,1708.00
2022-12-04T11:40:03.051Z,1692.00
2022-12-04T11:41:03.077Z,1688.00
2022-12-04T11:42:03.033Z,1680.00
2022-12-04T11:43:03.016Z,1664.00
2022-12-04T11:44:03.034Z,1592.00
2022-12-04T11:45:03.002Z,1460.00
2022-12-04T11:46:03.006Z,1488.00
2022-12-04T11:47:02.982Z,1504.00
2022-12-04T11:48:02.951Z,1488.00
2022-12-04T11:49:02.965Z,1432.00
2022-12-04T11:50:02.976Z,1380.00
2022-12-04T11:51:02.933Z,1544.00
2022-12-04T11:52:02.896Z,1692.00
2022-12-04T11:53:02.887Z,1740.00
2022-12-04T11:54:02.907Z,1756.00
2022-12-04T11:55:02.856Z,1740.00
2022-12-04T11:56:02.876Z,1700.00
2022-12-04T11:57:02.836Z,1692.00
2022-12-04T11:58:02.854Z,1672.00
2022-12-04T11:59:02.860Z,1540.00
2022-12-04T12:00:02.818Z,1364.00
2022-12-04T12:01:02.832Z,1192.00
2022-12-04T12:02:02.940Z,1048.00
2022-12-04T12:03:02.829Z,1092.00
2022-12-04T12:04:02.763Z,1080.00
2022-12-04T12:05:02.780Z,1064.00
2022-12-04T12:06:02.757Z,1068.00
2022-12-04T12:07:02.736Z,1176.00
2022-12-04T12:08:03.368Z,1352.00
2022-12-04T12:09:02.712Z,1564.00
2022-12-04T12:10:02.700Z,1600.00
2022-12-04T12:11:02.711Z,1548.00
2022-12-04T12:12:02.703Z,1436.00
2022-12-04T12:13:02.680Z,1416.00
2022-12-04T12:14:02.662Z,1404.00
2022-12-04T12:15:02.628Z,1396.00
2022-12-04T12:16:02.713Z,1368.00
2022-12-04T12:17:02.680Z,1344.00
2022-12-04T12:18:02.643Z,1296.00
2022-12-04T12:19:02.579Z,1304.00
2022-12-04T12:20:02.589Z,1324.00
2022-12-04T12:21:02.607Z,1396.00
2022-12-04T12:22:05.350Z,1420.00
2022-12-04T12:23:02.573Z,1488.00
2022-12-04T12:24:02.589Z,1488.00
2022-12-04T12:25:02.523Z,1476.00
2022-12-04T12:26:02.535Z,1488.00
2022-12-04T12:27:02.511Z,1656.00
2022-12-04T12:28:02.502Z,1620.00
2022-12-04T12:29:02.504Z,1616.00
2022-12-04T12:30:02.495Z,1564.00
2022-12-04T12:32:03.535Z,1572.00
2022-12-04T12:33:02.435Z,1500.00
2022-12-04T12:34:02.459Z,1384.00
2022-12-04T12:35:02.455Z,1368.00
2022-12-04T12:36:02.382Z,1304.00
2022-12-04T12:37:02.412Z,1216.00
2022-12-04T12:38:02.375Z,1172.00
2022-12-04T12:39:02.359Z,1156.00
2022-12-04T12:40:02.364Z,1172.00
2022-12-04T12:41:02.323Z,1192.00
2022-12-04T12:42:02.313Z,1224.00
2022-12-04T12:43:02.398Z,1328.00
2022-12-04T12:44:02.292Z,1376.00
2022-12-04T12:45:02.383Z,1404.00
2022-12-04T12:46:02.371Z,1432.00
2022-12-04T12:47:02.284Z,1464.00
2022-12-04T12:48:02.247Z,1536.00
2022-12-04T12:49:02.259Z,1408.00